• Join FlightAware (Why Join?)
  • Login
  • US Flag 
Trick or treat! (Boo!!) 
10:14AM EDT


 

Airport Tracker/Info


-or-


 

Live Flight TrackerFlight Track Log ✈ N830QS ✈ 15-Oct-2013 ✈ KIND - KAPF

Flight Track Log - Related Links

Times and Time Zones

All times are in EDT time to prevent confusion due to time zone crossing. See the N830QS flight status page for this flight to view local times or setup timezone preferences in your user account.

Time Position Orientation Groundspeed Altitude Reporting Facility
EDT Latitude Longitude Course Direction KTS MPH feet Rate Location/Type
10:58AM 39.7000 -86.3000 207° Southwest 166 191 1,600  Level Indianapolis TRACON
10:59AM 39.6500 -86.3333 207° Southwest 229 264 3,000 1,860 Climbing Indianapolis TRACON
11:00AM 39.5717 -86.3306 178° South 246 283 5,700 2,820 Climbing Indianapolis Center
11:01AM 39.5003 -86.3236 176° South 253 291 9,400 3,420 Climbing Indianapolis Center
11:02AM 39.4222 -86.3156 175° South 274 315 12,800 2,820 Climbing Indianapolis Center
11:03AM 39.3442 -86.3078 176° South 281 323 15,300 2,220 Climbing Indianapolis Center
11:04AM 39.2575 -86.2992 176° South 307 353 17,500 2,040 Climbing Indianapolis Center
11:05AM 39.1664 -86.2892 175° South 325 374 19,500 1,920 Climbing Indianapolis Center
11:06AM 39.0706 -86.2794 175° South 343 395 21,500 1,680 Climbing Indianapolis Center
11:07AM 38.9556 -86.2675 175° South 346 398 23,000 1,140 Climbing Indianapolis Center
11:08AM 38.8558 -86.2583 176° South 355 409 23,900 1,440 Climbing Indianapolis Center
11:09AM 38.7639 -86.2483 175° South 341 392 26,000 1,740 Climbing Indianapolis Center
11:10AM 38.6764 -86.2378 175° South 317 365 27,500 1,260 Climbing Indianapolis Center
11:11AM 38.5872 -86.2278 175° South 318 366 28,700 1,140 Climbing Indianapolis Center
11:12AM 38.4886 -86.2181 176° South 347 399 29,900 1,020 Climbing Indianapolis Center
11:13AM 38.3853 -86.1989 172° South 366 421 30,900 960 Climbing Indianapolis Center
11:14AM 38.2789 -86.1694 168° South 385 443 31,900 1,200 Climbing Indianapolis Center
11:15AM 38.1719 -86.1369 167° South 391 450 33,400 1,560 Climbing Indianapolis Center
11:16AM 38.0519 -86.0622 154° Southeast 396 456 35,200 1,560 Climbing Indianapolis Center
11:17AM 37.9519 -86.0006 154° Southeast 397 457 36,600 1,200 Climbing Indianapolis Center
11:18AM 37.8517 -85.9392 154° Southeast 397 457 37,800 1,020 Climbing Indianapolis Center
11:19AM 37.7492 -85.8750 154° Southeast 405 466 38,700 720 Climbing Indianapolis Center
11:20AM 37.6419 -85.8106 155° Southeast 418 481 39,300 540 Climbing Indianapolis Center
11:21AM 37.5311 -85.7428 154° Southeast 433 498 39,900 480 Climbing Indianapolis Center
11:22AM 37.4219 -85.6731 153° Southeast 436 502 40,400 480 Climbing Indianapolis Center
11:24AM 37.3092 -85.6047 154° Southeast 447 514 40,900 240 Climbing Indianapolis Center
11:25AM 37.1767 -85.5281 155° Southeast 453 521 41,000  Climbing Indianapolis Center
11:26AM 37.0622 -85.4944 167° South 440 506 41,000  Level Indianapolis Center
11:27AM 36.9264 -85.4500 165° South 452 520 41,000  Level Indianapolis Center
11:28AM 36.8033 -85.4092 165° South 457 526 41,000  Level Indianapolis Center
11:29AM 36.6794 -85.3706 166° South 458 527 41,000  Level Indianapolis Center
11:30AM 36.5561 -85.3311 166° South 458 527 41,000  Level Indianapolis Center
11:31AM 36.4317 -85.2917 166° South 461 531 41,000  Level Indianapolis Center
11:32AM 36.3056 -85.2517 166° South 466 536 41,000  Level Indianapolis Center
11:33AM 36.1542 -85.2050 166° South 469 540 41,000  Level Indianapolis Center
11:34AM 36.0292 -85.1664 166° South 469 540 41,000  Level Indianapolis Center
11:35AM 35.8969 -85.1228 165° South 473 544 41,000  Level Indianapolis Center
11:36AM 35.7675 -85.0839 166° South 475 547 41,000  Level Indianapolis Center
11:37AM 35.6517 -85.0494 166° South 476 548 41,000  Level Indianapolis Center
11:38AM 35.5000 -85.0006 165° South 473 544 41,000  Level Indianapolis Center
11:39AM 35.3497 -84.9556 166° South 469 540 41,000  Level Atlanta Center
11:40AM 35.2208 -84.9158 166° South 469 540 41,000  Level Atlanta Center
11:41AM 35.0936 -84.8764 166° South 469 540 41,000  Level Atlanta Center
11:42AM 34.9644 -84.8397 167° South 469 540 41,000  Level Atlanta Center
11:43AM 34.8333 -84.8006 166° South 474 545 41,000  Level Atlanta Center
11:44AM 34.7022 -84.7589 165° South 474 545 41,000  Level Atlanta Center
11:45AM 34.5792 -84.7175 165° South 469 540 41,000  Level Atlanta Center
11:46AM 34.4500 -84.6811 167° South 474 545 41,000  Level Atlanta Center
11:47AM 34.3189 -84.6400 165° South 474 545 41,000  Level Atlanta Center
11:48AM 34.1792 -84.6011 167° South 479 551 41,000  Level Atlanta Center
11:49AM 34.0561 -84.5653 166° South 488 562 41,000  Level Atlanta Center
11:50AM 33.9289 -84.5269 166° South 488 562 41,000  Level Atlanta Center
11:51AM 33.7872 -84.4861 167° South 481 554 41,000  Level Atlanta Center
11:52AM 33.6683 -84.4506 166° South 481 554 41,000  Level Atlanta Center
11:53AM 33.5369 -84.4375 175° South 487 560 41,000  Level Atlanta Center
11:54AM 33.4075 -84.4344 179° South 473 544 41,000  Level Atlanta Center
11:55AM 33.2781 -84.4339 180° South 473 544 41,000  Level Atlanta Center
11:56AM 33.1361 -84.4333 180° South 467 537 41,000  Level Atlanta Center
11:57AM 33.0047 -84.4278 178° South 467 537 41,000  Level Atlanta Center
11:58AM 32.8753 -84.4247 179° South 467 537 41,000  Level Atlanta Center
11:59AM 32.7606 -84.4217 179° South 470 541 41,000  Level Atlanta Center
12:00PM 32.6269 -84.4211 180° South 470 541 41,000  Level Atlanta Center
12:01PM 32.4975 -84.4156 178° South 470 541 41,000  Level Atlanta Center
12:02PM 32.3681 -84.4103 178° South 470 541 41,000  Level Atlanta Center
12:05PM 32.0594 -84.4075 180° South 485 558 41,000  Level Jacksonville Center
12:06PM 31.9300 -84.4031 178° South 473 544 41,000  Level Jacksonville Center
12:07PM 31.7983 -84.4033 180° South 473 544 41,000  Level Jacksonville Center
12:08PM 31.6669 -84.4011 179° South 473 544 41,000  Level Jacksonville Center
12:09PM 31.5375 -84.3967 178° South 473 544 41,000  Level Jacksonville Center
12:10PM 31.4039 -84.3919 178° South 478 550 41,000  Level Jacksonville Center
12:11PM 31.2725 -84.3850 177° South 478 550 41,000  Level Jacksonville Center
12:12PM 31.1478 -84.3319 160° South 473 544 41,000  Level Jacksonville Center
12:13PM 31.0233 -84.2744 158° South 473 544 41,000  Level Jacksonville Center
12:14PM 30.8964 -84.2169 159° South 484 557 41,000  Level Jacksonville Center
12:15PM 30.7717 -84.1572 158° South 484 557 41,000  Level Jacksonville Center
12:16PM 30.6450 -84.0997 159° South 490 564 41,000  Level Jacksonville Center
12:17PM 30.5119 -84.0356 157° South 490 564 41,000  Level Jacksonville Center
12:18PM 30.3872 -83.9811 159° South 483 556 41,000  Level Jacksonville Center
12:19PM 30.2622 -83.9267 159° South 483 556 41,000  Level Jacksonville Center
12:20PM 30.1356 -83.8678 158° South 483 556 41,000  Level Jacksonville Center
12:21PM 30.0086 -83.8111 159° South 488 562 41,000  Level Jacksonville Center
12:22PM 29.8836 -83.7550 159° South 488 562 41,000  Level Jacksonville Center
12:23PM 29.7567 -83.6989 159° South 488 562 41,000  Level Jacksonville Center
12:24PM 29.6297 -83.6428 159° South 488 562 41,000  Level Jacksonville Center
12:25PM 29.5047 -83.5869 159° South 488 562 41,000  Level Jacksonville Center
12:26PM 29.3778 -83.5289 158° South 488 562 41,000  Level Jacksonville Center
12:27PM 29.2528 -83.4733 159° South 488 562 41,000  Level Jacksonville Center
12:28PM 29.1278 -83.4181 159° South 488 562 41,000  Level Jacksonville Center
12:29PM 29.0131 -83.3650 158° South 493 567 41,000  Level Jacksonville Center
12:30PM 28.8794 -83.3408 171° South 487 560 41,000 -240 Level Jacksonville Center
12:32PM 28.6125 -83.3506 182° South 483 556 40,400 -960 Descending Miami Center
12:33PM 28.4811 -83.3547 182° South 483 556 38,300 -2,100 Descending Miami Center
12:34PM 28.3494 -83.3589 182° South 478 550 36,200 -1,680 Descending Miami Center
12:35PM 28.2322 -83.3661 183° South 478 550 35,000 -660 Descending Miami Center
12:36PM 28.1047 -83.3728 183° South 473 544 35,000  Level Miami Center
12:37PM 27.9611 -83.3669 178° South 478 550 35,000 -60 Level Miami Center
12:38PM 27.8300 -83.3642 179° South 478 550 34,900 -1,020 Descending Miami Center
12:39PM 27.6986 -83.3614 179° South 478 550 33,000 -1,920 Descending Miami Center
12:40PM 27.5736 -83.3614 180° South 472 543 31,100 -1,980 Descending Miami Center
12:41PM 27.4500 -83.3239 165° South 453 521 29,100 -2,040 Descending Miami Center
12:42PM 27.3525 -83.2225 137° Southeast 448 516 27,100 -2,040 Descending Miami Center
12:43PM 27.2650 -83.1197 134° Southeast 443 510 25,100 -1,980 Descending Miami Center
12:44PM 27.1797 -83.0172 133° Southeast 453 521 23,200 -1,920 Descending Miami Center
12:45PM 27.0964 -82.9194 134° Southeast 445 512 21,300 -1,920 Descending Miami Center
12:46PM 27.0189 -82.8269 133° Southeast 428 493 19,500 -1,800 Descending Miami Center
12:47PM 26.9411 -82.7344 133° Southeast 415 478 17,800 -1,740 Descending Miami Center
12:48PM 26.8653 -82.6469 134° Southeast 400 460 16,100 -1,680 Descending Miami Center
12:49PM 26.7936 -82.5597 133° Southeast 393 452 14,500 -1,620 Descending Miami Center
12:50PM 26.7278 -82.4819 133° Southeast 387 445 13,000 -1,560 Descending Miami Center
12:51PM 26.6600 -82.4022 134° Southeast 372 428 11,500 -1,500 Descending Miami Center
12:52PM 26.5831 -82.3358 142° Southeast 357 411 10,000 -780 Descending Miami Center
12:53PM 26.5039 -82.2789 147° Southeast 352 405 10,000  Level Miami Center
12:54PM 26.4206 -82.2194 147° Southeast 351 404 10,000 -660 Level Miami Center
12:55PM 26.3456 -82.1603 145° Southeast 326 375 8,700 -1,500 Descending Miami Center
12:56PM 26.2850 -82.1019 139° Southeast 303 349 7,000 -1,740 Descending Miami Center
12:57PM 26.2414 -82.0353 126° Southeast 271 312 5,300 -1,740 Descending Miami Center
12:59PM 26.0962 -81.9013 66° East  Level FlightAware Approximate
01:06PM 26.1500 -81.7667 66° East  Level FlightAware Approximate
01:07PM 26.1524 -81.7756 66° East  Level Estimated
01:08PM 26.1524 -81.7756 66° East  Level Estimated
01:09PM 26.1524 -81.7756 66° East  Level Estimated
01:10PM 26.1524 -81.7756 66° East  Level Estimated